createdAt,value
2018-11-06T00:00:26.611Z,15.78
2018-11-06T00:03:00.303Z,16.40
2018-11-06T00:05:28.631Z,16.05
2018-11-06T00:07:56.964Z,17.80
2018-11-06T00:10:25.270Z,15.90
2018-11-06T00:12:53.562Z,14.40
2018-11-06T00:15:21.865Z,12.20
2018-11-06T00:17:50.260Z,12.68
2018-11-06T00:20:18.528Z,13.98
2018-11-06T00:22:46.819Z,15.00
2018-11-06T00:25:15.079Z,14.55
2018-11-06T00:27:43.398Z,14.53
2018-11-06T00:30:13.010Z,13.90
2018-11-06T00:32:41.904Z,14.10
2018-11-06T00:35:12.424Z,14.20
2018-11-06T00:37:41.819Z,14.28
2018-11-06T00:40:10.142Z,11.28
2018-11-06T00:42:38.672Z,10.60
2018-11-06T00:45:09.325Z,10.98
2018-11-06T00:47:37.907Z,10.15
2018-11-06T00:50:07.102Z,11.10
2018-11-06T00:52:35.388Z,10.40
2018-11-06T00:55:03.642Z,11.37
2018-11-06T00:57:31.973Z,11.00
2018-11-06T01:00:00.279Z,11.53
2018-11-06T01:02:28.592Z,12.07
2018-11-06T01:04:56.894Z,10.95
2018-11-06T01:07:25.588Z,8.95
2018-11-06T01:09:53.885Z,9.70
2018-11-06T01:12:22.145Z,9.93
2018-11-06T01:14:50.431Z,10.32
2018-11-06T01:17:18.669Z,12.10
2018-11-06T01:19:46.924Z,11.65
2018-11-06T01:22:15.173Z,11.80
2018-11-06T01:24:43.446Z,12.82
2018-11-06T01:27:11.731Z,13.50
2018-11-06T01:29:40.025Z,12.40
2018-11-06T01:32:08.304Z,12.50
2018-11-06T01:34:36.571Z,11.07
2018-11-06T01:37:04.884Z,9.48
2018-11-06T01:39:33.169Z,9.88
2018-11-06T01:42:01.439Z,8.75
2018-11-06T01:44:29.753Z,11.75
2018-11-06T01:46:58.033Z,12.00
2018-11-06T01:49:26.306Z,11.05
2018-11-06T01:51:54.584Z,10.25
2018-11-06T01:54:22.894Z,10.82
2018-11-06T01:56:51.171Z,11.13
2018-11-06T01:59:19.440Z,10.98
2018-11-06T02:01:47.748Z,10.95
2018-11-06T02:04:16.036Z,10.93
2018-11-06T02:06:44.381Z,10.08
2018-11-06T02:09:12.788Z,10.48
2018-11-06T02:11:41.046Z,10.50
2018-11-06T02:14:09.733Z,9.80
2018-11-06T02:16:38.047Z,9.70
2018-11-06T02:19:06.367Z,9.98
2018-11-06T02:21:34.667Z,9.55
2018-11-06T02:24:03.369Z,10.00
2018-11-06T02:26:31.681Z,9.20
2018-11-06T02:28:59.998Z,8.15
2018-11-06T02:31:28.289Z,7.78
2018-11-06T02:33:56.575Z,8.80
2018-11-06T02:36:24.875Z,8.25
2018-11-06T02:38:53.177Z,9.00
2018-11-06T02:41:21.480Z,9.00
2018-11-06T02:43:49.788Z,6.97
2018-11-06T02:46:18.065Z,8.38
2018-11-06T02:48:46.339Z,10.32
2018-11-06T02:51:14.629Z,9.70
2018-11-06T02:53:42.901Z,9.28
2018-11-06T02:56:11.236Z,8.28
2018-11-06T02:58:39.558Z,8.90
2018-11-06T03:01:08.166Z,9.63
2018-11-06T03:03:39.476Z,6.92
2018-11-06T03:06:08.091Z,6.00
2018-11-06T03:08:36.453Z,7.00
2018-11-06T03:11:04.744Z,7.58
2018-11-06T03:13:33.021Z,7.87
2018-11-06T03:16:01.296Z,8.58
2018-11-06T03:18:29.591Z,8.08
2018-11-06T03:20:57.852Z,8.60
2018-11-06T03:23:26.150Z,9.07
2018-11-06T03:25:54.410Z,8.50
2018-11-06T03:28:22.671Z,9.28
2018-11-06T03:30:50.969Z,8.58
2018-11-06T03:33:19.247Z,8.30
2018-11-06T03:35:47.581Z,8.10
2018-11-06T03:38:15.868Z,9.53
2018-11-06T03:40:44.165Z,8.00
2018-11-06T03:43:12.448Z,8.55
2018-11-06T03:45:40.731Z,8.70
2018-11-06T03:48:09.067Z,8.35
2018-11-06T03:50:37.367Z,8.45
2018-11-06T03:53:05.680Z,8.63
2018-11-06T03:55:33.968Z,8.35
2018-11-06T03:58:02.241Z,6.50
2018-11-06T04:00:30.506Z,7.83
2018-11-06T04:02:58.769Z,7.75
2018-11-06T04:05:27.085Z,7.60
2018-11-06T04:07:55.386Z,8.53
2018-11-06T04:10:23.688Z,7.58
2018-11-06T04:12:51.964Z,9.33
2018-11-06T04:15:20.241Z,9.63
2018-11-06T04:17:48.520Z,8.43
2018-11-06T04:20:16.794Z,8.40
2018-11-06T04:22:45.063Z,8.15
2018-11-06T04:25:13.340Z,7.70
2018-11-06T04:27:41.620Z,9.33
2018-11-06T04:30:11.669Z,7.85
2018-11-06T04:32:40.537Z,8.53
2018-11-06T04:35:09.229Z,8.53
2018-11-06T04:37:37.866Z,8.63
2018-11-06T04:40:07.521Z,8.83
2018-11-06T04:42:35.933Z,8.80
2018-11-06T04:45:04.232Z,8.88
2018-11-06T04:47:32.514Z,10.50
2018-11-06T04:50:00.790Z,9.53
2018-11-06T04:52:29.091Z,8.30
2018-11-06T04:54:57.386Z,8.65
2018-11-06T04:57:25.662Z,9.28
2018-11-06T04:59:53.952Z,8.20
2018-11-06T05:02:22.231Z,8.50
2018-11-06T05:04:50.496Z,7.30
2018-11-06T05:07:18.771Z,7.20
2018-11-06T05:09:47.262Z,8.50
2018-11-06T05:12:15.659Z,9.50
2018-11-06T05:14:44.009Z,9.45
2018-11-06T05:17:12.352Z,8.43
2018-11-06T05:19:40.889Z,8.50
2018-11-06T05:22:09.244Z,8.20
2018-11-06T05:24:37.554Z,8.08
2018-11-06T05:27:05.904Z,8.85
2018-11-06T05:29:34.389Z,9.60
2018-11-06T05:32:02.876Z,9.08
2018-11-06T05:34:31.156Z,8.85
2018-11-06T05:36:59.424Z,9.50
2018-11-06T05:39:27.695Z,9.13
2018-11-06T05:41:55.989Z,8.03
2018-11-06T05:44:24.264Z,8.18
2018-11-06T05:46:52.560Z,7.00
2018-11-06T05:49:20.861Z,7.97
2018-11-06T05:51:49.150Z,8.48
2018-11-06T05:54:17.443Z,7.70
2018-11-06T05:56:45.737Z,8.18
2018-11-06T05:59:14.005Z,7.47
2018-11-06T06:01:42.289Z,8.20
2018-11-06T06:04:10.567Z,7.42
2018-11-06T06:06:38.906Z,7.62
2018-11-06T06:09:07.887Z,7.30
2018-11-06T06:11:36.196Z,8.80
2018-11-06T06:14:04.475Z,9.20
2018-11-06T06:16:32.741Z,8.75
2018-11-06T06:19:01.036Z,8.70
2018-11-06T06:21:29.288Z,8.00
2018-11-06T06:23:57.541Z,7.20
2018-11-06T06:26:25.816Z,7.25
2018-11-06T06:28:54.121Z,7.20
2018-11-06T06:31:22.391Z,6.50
2018-11-06T06:33:50.665Z,7.40
2018-11-06T06:36:18.947Z,8.55
2018-11-06T06:38:47.292Z,8.70
2018-11-06T06:41:15.500Z,9.20
2018-11-06T06:43:43.739Z,7.97
2018-11-06T06:46:12.034Z,7.45
2018-11-06T06:48:40.255Z,7.20
2018-11-06T06:51:08.500Z,6.87
2018-11-06T06:53:36.787Z,6.50
2018-11-06T06:56:05.601Z,7.17
2018-11-06T06:58:33.872Z,7.80
2018-11-06T07:01:02.169Z,7.87
2018-11-06T07:03:30.458Z,8.28
2018-11-06T07:05:58.695Z,7.97
2018-11-06T07:08:26.950Z,7.45
2018-11-06T07:10:55.233Z,8.60
2018-11-06T07:13:23.513Z,9.10
2018-11-06T07:15:51.793Z,11.15
2018-11-06T07:18:20.108Z,11.68
2018-11-06T07:20:48.398Z,10.60
2018-11-06T07:23:16.718Z,10.72
2018-11-06T07:25:45.000Z,11.15
2018-11-06T07:28:13.284Z,11.57
2018-11-06T07:30:41.561Z,13.30
2018-11-06T07:33:09.836Z,11.80
2018-11-06T07:35:38.260Z,12.58
2018-11-06T07:38:06.395Z,13.55
2018-11-06T07:40:34.708Z,10.40
2018-11-06T07:43:02.961Z,10.70
2018-11-06T07:45:31.232Z,10.50
2018-11-06T07:47:59.520Z,9.80
2018-11-06T07:50:27.843Z,10.40
2018-11-06T07:52:56.106Z,9.37
2018-11-06T07:55:24.367Z,10.20
2018-11-06T07:57:52.636Z,11.03
2018-11-06T08:00:26.177Z,11.65
2018-11-06T08:02:54.475Z,12.33
2018-11-06T08:05:22.816Z,12.55
2018-11-06T08:07:51.599Z,12.97
2018-11-06T08:10:19.900Z,13.35
2018-11-06T08:12:51.410Z,12.60
2018-11-06T08:15:19.686Z,12.17
2018-11-06T08:17:48.044Z,12.27
2018-11-06T08:20:16.351Z,10.57
2018-11-06T08:22:44.588Z,9.23
2018-11-06T08:25:13.935Z,10.07
2018-11-06T08:27:42.987Z,11.15
2018-11-06T08:30:11.933Z,12.20
2018-11-06T08:32:40.425Z,12.05
2018-11-06T08:35:10.645Z,11.90
2018-11-06T08:37:38.906Z,11.37
2018-11-06T08:40:07.739Z,11.28
2018-11-06T08:42:36.407Z,10.78
2018-11-06T08:45:05.928Z,10.73
2018-11-06T08:47:34.196Z,11.28
2018-11-06T08:50:02.673Z,11.20
2018-11-06T08:52:31.040Z,10.72
2018-11-06T08:54:59.293Z,11.43
2018-11-06T08:57:27.551Z,10.87
2018-11-06T08:59:56.282Z,10.20
2018-11-06T09:02:24.591Z,11.50
2018-11-06T09:04:52.844Z,11.10
2018-11-06T09:07:21.105Z,11.43
2018-11-06T09:09:49.394Z,10.88
2018-11-06T09:12:17.664Z,11.80
2018-11-06T09:14:45.921Z,11.63
2018-11-06T09:17:14.196Z,12.03
2018-11-06T09:19:42.451Z,11.22
2018-11-06T09:22:10.956Z,10.28
2018-11-06T09:24:39.208Z,10.70
2018-11-06T09:27:07.463Z,10.30
2018-11-06T09:29:35.724Z,10.73
2018-11-06T09:32:04.172Z,11.07
2018-11-06T09:34:32.416Z,10.98
2018-11-06T09:37:00.679Z,10.60
2018-11-06T09:39:28.948Z,10.72
2018-11-06T09:41:57.196Z,11.10
2018-11-06T09:44:25.448Z,11.00
2018-11-06T09:46:53.721Z,10.90
2018-11-06T09:49:21.990Z,11.00
2018-11-06T09:51:50.270Z,11.75
2018-11-06T09:54:18.525Z,9.83
2018-11-06T09:56:46.772Z,10.85
2018-11-06T09:59:15.047Z,9.73
2018-11-06T10:01:43.336Z,10.00
2018-11-06T10:04:11.596Z,9.98
2018-11-06T10:06:39.996Z,10.93
2018-11-06T10:09:09.372Z,10.00
2018-11-06T10:11:37.847Z,9.33
2018-11-06T10:14:06.128Z,10.35
2018-11-06T10:16:34.614Z,10.35
2018-11-06T10:19:02.900Z,9.90
2018-11-06T10:21:31.199Z,10.30
2018-11-06T10:23:59.512Z,10.23
2018-11-06T10:26:27.793Z,10.48
2018-11-06T10:28:56.063Z,10.32
2018-11-06T10:31:24.356Z,10.70
2018-11-06T10:33:52.768Z,10.43
2018-11-06T10:36:21.053Z,10.20
2018-11-06T10:38:49.325Z,10.70
2018-11-06T10:41:17.604Z,10.80
2018-11-06T10:43:45.893Z,10.78
2018-11-06T10:46:14.141Z,9.58
2018-11-06T10:48:42.849Z,10.85
2018-11-06T10:51:11.129Z,9.40
2018-11-06T10:53:39.399Z,9.98
2018-11-06T10:56:07.642Z,9.55
2018-11-06T10:58:35.948Z,10.05
2018-11-06T11:01:09.827Z,9.20
2018-11-06T11:03:39.855Z,9.50
2018-11-06T11:06:08.371Z,9.95
2018-11-06T11:08:36.656Z,9.10
2018-11-06T11:11:04.956Z,9.40
2018-11-06T11:13:39.632Z,9.83
2018-11-06T11:16:07.912Z,9.60
2018-11-06T11:18:36.168Z,9.73
2018-11-06T11:21:04.615Z,9.33
2018-11-06T11:23:32.876Z,9.50
2018-11-06T11:26:01.169Z,9.60
2018-11-06T11:28:29.440Z,9.33
2018-11-06T11:30:57.704Z,9.00
2018-11-06T11:33:25.959Z,9.58
2018-11-06T11:35:54.227Z,9.48
2018-11-06T11:38:22.524Z,9.50
2018-11-06T11:40:50.799Z,10.05
2018-11-06T11:43:19.089Z,9.85
2018-11-06T11:45:47.467Z,10.28
2018-11-06T11:48:15.684Z,10.08
2018-11-06T11:50:43.964Z,10.25
2018-11-06T11:53:12.278Z,10.05
2018-11-06T11:55:40.574Z,10.32
2018-11-06T11:58:08.878Z,10.28
2018-11-06T12:00:38.435Z,11.03
2018-11-06T12:03:07.323Z,11.50
2018-11-06T12:05:35.640Z,10.90
2018-11-06T12:08:03.945Z,11.05
2018-11-06T12:10:32.277Z,10.40
2018-11-06T12:13:00.559Z,10.40
2018-11-06T12:15:28.833Z,10.85
2018-11-06T12:17:57.109Z,9.90
2018-11-06T12:20:25.384Z,11.18
2018-11-06T12:22:53.660Z,11.08
2018-11-06T12:25:22.061Z,11.00
2018-11-06T12:27:50.214Z,11.30
2018-11-06T12:30:18.459Z,11.35
2018-11-06T12:32:46.741Z,10.20
2018-11-06T12:35:15.315Z,11.00
2018-11-06T12:37:43.577Z,10.57
2018-11-06T12:40:12.702Z,11.40
2018-11-06T12:42:41.553Z,11.00
2018-11-06T12:45:11.315Z,10.88
2018-11-06T12:47:39.892Z,10.80
2018-11-06T12:50:08.728Z,10.00
2018-11-06T12:52:37.156Z,10.93
2018-11-06T12:55:06.569Z,10.65
2018-11-06T12:57:34.863Z,11.53
2018-11-06T13:00:03.146Z,11.17
2018-11-06T13:02:31.424Z,11.67
2018-11-06T13:04:59.683Z,10.67
2018-11-06T13:07:27.954Z,11.77
2018-11-06T13:09:56.249Z,11.10
2018-11-06T13:12:24.491Z,10.80
2018-11-06T13:14:52.784Z,10.10
2018-11-06T13:17:21.071Z,10.83
2018-11-06T13:19:49.416Z,11.30
2018-11-06T13:22:17.694Z,11.70
2018-11-06T13:24:45.997Z,11.30
2018-11-06T13:27:14.251Z,10.90
2018-11-06T13:29:42.540Z,11.33
2018-11-06T13:32:10.862Z,18.43
2018-11-06T13:34:39.109Z,10.90
2018-11-06T13:37:07.425Z,12.63
2018-11-06T13:39:35.719Z,10.20
2018-11-06T13:42:04.547Z,11.50
2018-11-06T13:44:33.228Z,11.25
2018-11-06T13:47:01.148Z,12.05
2018-11-06T13:49:29.433Z,12.82
2018-11-06T13:51:57.743Z,11.15
2018-11-06T13:54:26.027Z,14.05
2018-11-06T13:56:54.281Z,11.80
2018-11-06T13:59:22.553Z,12.05
2018-11-06T14:01:50.840Z,11.40
2018-11-06T14:04:19.192Z,12.33
2018-11-06T14:06:47.443Z,12.07
2018-11-06T14:09:15.702Z,12.80
2018-11-06T14:11:43.963Z,13.20
2018-11-06T14:14:12.217Z,12.03
2018-11-06T14:16:40.486Z,12.95
2018-11-06T14:19:08.763Z,12.75
2018-11-06T14:21:37.039Z,11.63
2018-11-06T14:24:05.329Z,13.18
2018-11-06T14:26:33.596Z,12.20
2018-11-06T14:29:01.881Z,12.00
2018-11-06T14:31:30.156Z,13.00
2018-11-06T14:33:58.425Z,10.95
2018-11-06T14:36:26.700Z,12.15
2018-11-06T14:38:55.157Z,12.93
2018-11-06T14:41:23.425Z,12.05
2018-11-06T14:43:51.672Z,11.75
2018-11-06T14:46:19.907Z,12.58
2018-11-06T14:48:48.403Z,13.25
2018-11-06T14:51:16.472Z,13.22
2018-11-06T14:53:44.763Z,11.40
2018-11-06T14:56:13.044Z,11.40
2018-11-06T14:58:41.316Z,11.80
2018-11-06T15:01:09.610Z,11.97
2018-11-06T15:03:37.873Z,12.07
2018-11-06T15:06:06.398Z,12.28
2018-11-06T15:08:34.678Z,11.23
2018-11-06T15:11:03.047Z,11.90
2018-11-06T15:13:31.332Z,11.20
2018-11-06T15:15:59.603Z,11.10
2018-11-06T15:18:27.856Z,10.80
2018-11-06T15:20:56.199Z,11.13
2018-11-06T15:23:24.376Z,11.53
2018-11-06T15:25:52.649Z,11.07
2018-11-06T15:28:20.911Z,11.50
2018-11-06T15:30:49.161Z,10.97
2018-11-06T15:33:17.413Z,11.78
2018-11-06T15:35:45.663Z,10.90
2018-11-06T15:38:13.943Z,11.78
2018-11-06T15:40:42.241Z,11.05
2018-11-06T15:43:10.469Z,11.70
2018-11-06T15:45:38.744Z,10.63
2018-11-06T15:48:06.998Z,11.20
2018-11-06T15:50:35.246Z,11.15
2018-11-06T15:53:03.624Z,11.40
2018-11-06T15:55:31.872Z,11.53
2018-11-06T15:58:00.136Z,10.95
2018-11-06T16:00:28.401Z,11.22
2018-11-06T16:02:56.665Z,11.43
2018-11-06T16:05:24.920Z,11.80
2018-11-06T16:07:53.359Z,11.78
2018-11-06T16:10:23.061Z,12.93
2018-11-06T16:12:51.404Z,11.73
2018-11-06T16:15:19.716Z,12.47
2018-11-06T16:17:48.089Z,12.55
2018-11-06T16:20:17.774Z,12.10
2018-11-06T16:22:46.356Z,12.90
2018-11-06T16:25:15.687Z,14.73
2018-11-06T16:27:44.453Z,13.93
2018-11-06T16:30:22.319Z,11.90
2018-11-06T16:32:50.632Z,13.83
2018-11-06T16:35:22.393Z,13.45
2018-11-06T16:37:50.703Z,13.47
2018-11-06T16:40:19.361Z,12.60
2018-11-06T16:42:48.128Z,11.48
2018-11-06T16:45:18.872Z,11.67
2018-11-06T16:47:47.964Z,14.50
2018-11-06T16:50:17.172Z,16.45
2018-11-06T16:52:45.508Z,18.32
2018-11-06T16:55:14.215Z,15.00
2018-11-06T16:57:43.334Z,16.90
2018-11-06T17:00:13.804Z,16.25
2018-11-06T17:02:42.559Z,10.70
2018-11-06T17:05:12.159Z,10.70
2018-11-06T17:07:40.491Z,9.20
2018-11-06T17:10:10.636Z,8.50
2018-11-06T17:12:38.996Z,8.63
2018-11-06T17:15:09.437Z,9.10
2018-11-06T17:17:37.699Z,8.30
2018-11-06T17:20:07.483Z,8.35
2018-11-06T17:22:35.765Z,7.43
2018-11-06T17:25:04.383Z,6.50
2018-11-06T17:27:32.641Z,6.83
2018-11-06T17:30:00.893Z,7.00
2018-11-06T23:46:59.380Z,10.97
2018-11-06T23:49:27.676Z,12.30
2018-11-06T23:51:55.981Z,12.33
2018-11-06T23:54:24.261Z,12.33
2018-11-06T23:56:52.548Z,11.95
2018-11-06T23:59:20.831Z,11.55
